Weather at Malé International Airport

Public forecast

Using degrees Celsius for public forecast. Weather courtesy of forecast.io.

Current aviation weather report (METAR) for Malé International Airport

Report is more than 6 hours old.

2022/11/14 15:00 (retrieved 2 years ago)

VRMM 141500Z 29014KT 9999 FEW017TCU BKN110 28/25 Q1012 TEMPO 27020G35KT 3000 TSRA

Aviation forecast (TAF) for Malé International Airport

Forecast is more than 12 hours old.

2023/02/22 18:09 (retrieved 1 year ago)

TAF VRMM 221700Z 2218/2324 03009KT 8000 FEW018TCU TEMPO 2218/2224 FEW018CB